createdAt,value
2019-04-04T00:01:32.461Z,13.50
2019-04-04T00:04:01.637Z,12.00
2019-04-04T00:06:30.602Z,12.00
2019-04-04T00:09:00.081Z,10.50
2019-04-04T00:11:30.448Z,12.00
2019-04-04T00:13:59.446Z,13.50
2019-04-04T00:16:28.436Z,13.00
2019-04-04T00:19:02.421Z,13.50
2019-04-04T00:21:32.049Z,12.00
2019-04-04T00:24:02.222Z,14.00
2019-04-04T00:26:31.250Z,11.50
2019-04-04T00:29:01.787Z,13.00
2019-04-04T00:31:30.890Z,12.50
2019-04-04T00:33:59.908Z,10.00
2019-04-04T00:36:28.911Z,14.00
2019-04-04T00:38:58.029Z,13.50
2019-04-04T00:41:27.096Z,11.50
2019-04-04T00:43:56.231Z,12.00
2019-04-04T00:46:25.231Z,13.00
2019-04-04T00:48:54.335Z,12.00
2019-04-04T00:51:23.405Z,13.50
2019-04-04T00:53:52.378Z,13.00
2019-04-04T00:56:21.406Z,12.50
2019-04-04T00:58:52.072Z,14.00
2019-04-04T01:01:21.139Z,12.50
2019-04-04T01:03:50.158Z,14.00
2019-04-04T01:06:19.250Z,12.50
2019-04-04T01:08:48.233Z,12.00
2019-04-04T01:11:18.297Z,13.00
2019-04-04T01:13:48.061Z,13.00
2019-04-04T01:16:17.052Z,14.50
2019-04-04T01:18:46.067Z,13.50
2019-04-04T01:21:15.046Z,14.00
2019-04-04T01:23:44.194Z,12.00
2019-04-04T01:26:13.230Z,12.50
2019-04-04T01:28:42.239Z,11.00
2019-04-04T01:31:11.281Z,17.00
2019-04-04T01:33:42.007Z,14.50
2019-04-04T01:36:10.989Z,12.50
2019-04-04T01:38:40.015Z,13.50
2019-04-04T01:41:09.083Z,14.00
2019-04-04T01:43:40.061Z,12.00
2019-04-04T01:46:09.015Z,15.00
2019-04-04T01:48:38.041Z,16.00
2019-04-04T01:51:07.913Z,14.00
2019-04-04T01:53:37.289Z,12.00
2019-04-04T01:56:07.017Z,13.50
2019-04-04T01:58:36.122Z,16.00
2019-04-04T02:01:05.271Z,15.50
2019-04-04T02:03:34.324Z,16.00
2019-04-04T02:06:03.524Z,15.00
2019-04-04T02:08:32.521Z,14.00
2019-04-04T02:11:01.541Z,12.00
2019-04-04T02:13:30.607Z,16.00
2019-04-04T02:15:59.704Z,15.00
2019-04-04T02:18:28.783Z,14.50
2019-04-04T02:20:58.452Z,16.50
2019-04-04T02:23:27.496Z,12.50
2019-04-04T02:25:56.482Z,12.00
2019-04-04T02:28:25.514Z,16.50
2019-04-04T02:30:54.770Z,16.50
2019-04-04T02:33:23.757Z,14.50
2019-04-04T02:35:52.870Z,17.00
2019-04-04T02:38:21.872Z,16.50
2019-04-04T02:40:50.912Z,13.50
2019-04-04T02:43:19.942Z,17.00
2019-04-04T02:45:48.967Z,19.00
2019-04-04T02:48:18.074Z,16.00
2019-04-04T02:50:47.066Z,17.00
2019-04-04T02:53:19.230Z,16.00
2019-04-04T02:55:46.867Z,17.50
2019-04-04T02:58:15.932Z,17.00
2019-04-04T03:00:44.937Z,17.00
2019-04-04T03:03:14.175Z,17.00
2019-04-04T03:05:43.386Z,19.00
2019-04-04T03:08:14.280Z,17.00
2019-04-04T03:10:47.710Z,19.00
2019-04-04T03:13:14.302Z,14.00
2019-04-04T03:15:47.391Z,19.50
2019-04-04T03:18:14.215Z,20.00
2019-04-04T03:20:43.240Z,19.50
2019-04-04T03:23:12.234Z,19.50
2019-04-04T03:25:41.220Z,18.50
2019-04-04T03:28:10.242Z,20.00
2019-04-04T03:30:39.213Z,20.50
2019-04-04T03:33:10.242Z,23.00
2019-04-04T03:35:39.276Z,20.50
2019-04-04T03:38:08.304Z,20.00
2019-04-04T03:40:37.262Z,22.50
2019-04-04T03:43:06.371Z,20.00
2019-04-04T03:45:35.470Z,22.00
2019-04-04T03:48:04.646Z,20.50
2019-04-04T03:50:34.515Z,19.50
2019-04-04T03:53:03.478Z,21.50
2019-04-04T03:55:32.528Z,20.50
2019-04-04T03:58:01.533Z,20.50
2019-04-04T04:00:31.712Z,18.00
2019-04-04T04:03:01.025Z,19.00
2019-04-04T04:05:34.674Z,18.50
2019-04-04T04:08:01.876Z,21.00
2019-04-04T04:10:33.400Z,22.00
2019-04-04T04:13:01.723Z,20.00
2019-04-04T04:15:30.767Z,18.50
2019-04-04T04:17:59.807Z,20.50
2019-04-04T04:20:29.081Z,20.50
2019-04-04T04:22:58.269Z,20.50
2019-04-04T04:25:27.332Z,18.00
2019-04-04T04:27:56.624Z,20.50
2019-04-04T04:30:25.566Z,19.00
2019-04-04T04:32:57.145Z,18.00
2019-04-04T04:35:25.456Z,20.00
2019-04-04T04:37:54.452Z,19.00
2019-04-04T04:40:23.526Z,20.00
2019-04-04T04:42:52.493Z,22.00
2019-04-04T04:45:21.553Z,19.00
2019-04-04T04:47:50.539Z,22.00
2019-04-04T04:50:19.520Z,19.50
2019-04-04T04:52:48.653Z,15.00
2019-04-04T04:55:17.743Z,20.00
2019-04-04T04:57:46.717Z,20.50
2019-04-04T05:00:16.765Z,22.50
2019-04-04T05:02:45.881Z,17.50
2019-04-04T05:05:15.069Z,17.50
2019-04-04T05:07:44.039Z,20.50
2019-04-04T05:10:15.122Z,18.50
2019-04-04T05:12:44.250Z,21.50
2019-04-04T05:15:13.345Z,18.50
2019-04-04T05:17:42.589Z,20.50
2019-04-04T05:20:12.993Z,20.00
2019-04-04T05:22:42.054Z,20.00
2019-04-04T05:25:11.214Z,16.50
2019-04-04T05:27:40.309Z,22.00
2019-04-04T05:30:09.477Z,20.00
2019-04-04T05:32:38.474Z,22.00
2019-04-04T05:35:08.390Z,24.50
2019-04-04T05:37:38.249Z,27.00
2019-04-04T05:40:08.800Z,28.50
2019-04-04T05:42:37.781Z,24.50
2019-04-04T05:45:07.241Z,24.00
2019-04-04T05:47:36.366Z,23.00
2019-04-04T05:50:06.618Z,26.00
2019-04-04T05:52:35.871Z,25.50
2019-04-04T05:55:05.117Z,22.50
2019-04-04T05:57:34.254Z,23.00
2019-04-04T06:00:04.931Z,22.00
2019-04-04T06:02:33.924Z,24.00
2019-04-04T06:05:02.999Z,21.00
2019-04-04T06:07:32.100Z,18.00
2019-04-04T06:10:01.193Z,25.00
2019-04-04T06:12:30.204Z,19.50
2019-04-04T06:15:00.551Z,19.00
2019-04-04T06:17:30.021Z,21.00
2019-04-04T06:20:01.302Z,16.50
2019-04-04T06:22:30.335Z,17.50
2019-04-04T06:24:59.930Z,20.00
2019-04-04T06:27:29.003Z,16.00
2019-04-04T06:29:59.926Z,18.50
2019-04-04T06:32:29.020Z,17.50
2019-04-04T06:35:01.342Z,18.00
2019-04-04T06:37:30.355Z,18.00
2019-04-04T06:40:05.933Z,20.50
2019-04-04T06:42:36.243Z,19.00
2019-04-04T06:45:07.132Z,18.50
2019-04-04T06:47:36.156Z,18.00
2019-04-04T06:50:08.098Z,22.00
2019-04-04T06:52:37.567Z,18.00
2019-04-04T06:55:08.298Z,19.50
2019-04-04T06:57:37.655Z,18.00
2019-04-04T07:00:08.301Z,18.50
2019-04-04T07:02:38.032Z,20.00
2019-04-04T07:05:10.604Z,22.00
2019-04-04T07:07:43.110Z,23.00
2019-04-04T07:10:11.010Z,24.00
2019-04-04T07:12:39.993Z,22.50
2019-04-04T07:15:12.477Z,24.00
2019-04-04T07:17:41.309Z,24.50
2019-04-04T07:20:10.706Z,21.50
2019-04-04T07:22:39.707Z,23.00
2019-04-04T07:25:09.037Z,21.50
2019-04-04T07:27:38.199Z,20.00
2019-04-04T07:30:07.743Z,23.50
2019-04-04T07:32:36.786Z,20.50
2019-04-04T07:35:06.413Z,23.00
2019-04-04T07:37:35.465Z,22.00
2019-04-04T07:40:04.768Z,21.50
2019-04-04T07:42:33.817Z,19.50
2019-04-04T07:45:02.884Z,17.50
2019-04-04T07:47:31.965Z,19.50
2019-04-04T07:50:01.157Z,18.00
2019-04-04T07:52:32.854Z,18.00
2019-04-04T07:55:00.902Z,16.00
2019-04-04T07:57:30.398Z,18.00
2019-04-04T07:59:59.789Z,17.00
2019-04-04T08:02:28.771Z,19.50
2019-04-04T08:04:57.816Z,18.50
2019-04-04T08:07:26.883Z,20.00
2019-04-04T08:09:55.865Z,18.00
2019-04-04T08:12:25.040Z,18.00
2019-04-04T08:14:54.046Z,17.50
2019-04-04T08:17:23.170Z,20.00
2019-04-04T08:19:59.659Z,17.50
2019-04-04T08:22:23.016Z,20.00
2019-04-04T08:24:52.162Z,19.50
2019-04-04T08:27:21.170Z,18.00
2019-04-04T08:29:50.206Z,20.00
2019-04-04T08:32:19.237Z,19.50
2019-04-04T08:34:48.371Z,22.00
2019-04-04T08:37:17.478Z,18.00
2019-04-04T08:39:46.540Z,18.50
2019-04-04T08:42:15.628Z,16.00
2019-04-04T08:44:44.686Z,16.50
2019-04-04T08:47:13.775Z,14.00
2019-04-04T08:49:42.813Z,14.00
2019-04-04T08:52:16.904Z,19.50
2019-04-04T08:54:42.573Z,19.50
2019-04-04T08:57:11.568Z,17.50
2019-04-04T08:59:40.629Z,19.00
2019-04-04T09:02:09.640Z,18.50
2019-04-04T09:04:38.714Z,17.75
2019-04-04T09:07:07.703Z,21.25
2019-04-04T09:09:36.738Z,16.75
2019-04-04T09:12:05.851Z,15.75
2019-04-04T09:14:35.004Z,14.75
2019-04-04T09:17:04.137Z,16.25
2019-04-04T09:19:33.154Z,14.25
2019-04-04T09:22:02.186Z,17.25
2019-04-04T09:24:31.364Z,17.75
2019-04-04T09:27:00.511Z,17.00
2019-04-04T09:29:29.501Z,15.25
2019-04-04T09:32:01.321Z,15.25
2019-04-04T09:34:30.319Z,19.00
2019-04-04T09:36:59.450Z,18.00
2019-04-04T09:39:28.474Z,15.50
2019-04-04T09:41:57.662Z,17.50
2019-04-04T09:44:26.633Z,18.00
2019-04-04T09:47:05.330Z,17.50
2019-04-04T09:49:26.894Z,19.00
2019-04-04T09:51:57.404Z,17.50
2019-04-04T09:56:56.071Z,17.00
2019-04-04T09:59:25.043Z,19.00
2019-04-04T10:01:54.104Z,16.50
2019-04-04T10:04:23.156Z,15.50
2019-04-04T10:06:52.177Z,16.50
2019-04-04T10:09:21.243Z,15.00
2019-04-04T10:11:50.305Z,17.50
2019-04-04T10:14:24.819Z,19.00
2019-04-04T10:16:55.072Z,17.00
2019-04-04T10:19:24.134Z,19.50
2019-04-04T10:21:53.228Z,17.00
2019-04-04T10:24:22.226Z,15.50
2019-04-04T10:26:51.278Z,18.00
2019-04-04T10:29:20.357Z,19.00
2019-04-04T10:31:49.402Z,16.00
2019-04-04T10:34:18.407Z,15.50
2019-04-04T10:36:47.466Z,16.50
2019-04-04T10:39:28.271Z,13.00
2019-04-04T10:41:47.392Z,15.50
2019-04-04T10:44:16.427Z,14.75
2019-04-04T10:46:45.559Z,18.75
2019-04-04T10:49:14.596Z,18.75
2019-04-04T10:51:43.576Z,17.25
2019-04-04T10:54:12.592Z,17.25
2019-04-04T10:56:41.712Z,17.25
2019-04-04T10:59:10.773Z,17.50
2019-04-04T11:01:39.801Z,22.50
2019-04-04T11:04:08.832Z,16.25
2019-04-04T11:06:37.946Z,19.50
2019-04-04T11:09:08.674Z,20.00
2019-04-04T11:11:37.682Z,19.50
2019-04-04T11:14:06.781Z,18.00
2019-04-04T11:16:35.856Z,18.00
2019-04-04T11:19:06.322Z,16.00
2019-04-04T11:21:35.303Z,19.50
2019-04-04T11:24:04.503Z,18.00
2019-04-04T11:26:33.467Z,18.00
2019-04-04T11:29:02.480Z,16.00
2019-04-04T11:31:31.536Z,17.50
2019-04-04T11:34:00.591Z,14.50
2019-04-04T11:36:29.674Z,16.50
2019-04-04T11:39:04.094Z,18.00
2019-04-04T11:41:34.780Z,15.50
2019-04-04T11:44:03.924Z,15.00
2019-04-04T11:46:32.984Z,15.50
2019-04-04T11:49:02.066Z,19.00
2019-04-04T11:51:31.070Z,18.50
2019-04-04T11:54:00.075Z,16.50
2019-04-04T11:56:29.522Z,18.00
2019-04-04T11:58:58.695Z,15.00
2019-04-04T12:01:28.491Z,14.00
2019-04-04T12:03:57.613Z,12.50
2019-04-04T12:06:26.691Z,16.00
2019-04-04T12:08:55.800Z,14.50
2019-04-04T12:11:24.800Z,14.00
2019-04-04T12:16:22.073Z,16.00
2019-04-04T12:18:51.168Z,12.50
2019-04-04T12:21:20.321Z,14.00
2019-04-04T12:23:51.452Z,15.50
2019-04-04T12:26:20.295Z,14.00
2019-04-04T12:28:49.342Z,14.50
2019-04-04T12:31:18.328Z,14.00
2019-04-04T12:33:47.300Z,16.00
2019-04-04T12:36:24.546Z,16.00
2019-04-04T12:38:47.146Z,16.75
2019-04-04T12:41:16.160Z,15.25
2019-04-04T12:43:45.247Z,17.25
2019-04-04T12:46:14.275Z,15.75
2019-04-04T12:48:43.427Z,16.00
2019-04-04T12:51:12.598Z,18.25
2019-04-04T12:53:41.679Z,17.75
2019-04-04T12:56:10.825Z,18.25
2019-04-04T12:58:39.965Z,16.00
2019-04-04T13:01:09.074Z,14.50
2019-04-04T13:03:38.108Z,14.50
2019-04-04T13:06:07.282Z,16.00
2019-04-04T13:08:36.291Z,14.50
2019-04-04T13:11:05.531Z,11.50
2019-04-04T13:13:34.569Z,12.50
2019-04-04T13:16:03.664Z,14.00
2019-04-04T13:18:32.650Z,12.00
2019-04-04T13:21:01.835Z,11.00
2019-04-04T13:23:30.930Z,11.00
2019-04-04T13:25:59.948Z,14.50
2019-04-04T13:28:29.070Z,15.00
2019-04-04T13:30:58.246Z,12.50
2019-04-04T13:33:27.259Z,12.00
2019-04-04T13:35:56.934Z,12.00
2019-04-04T13:38:25.896Z,12.50
2019-04-04T13:40:54.966Z,9.75
2019-04-04T13:43:23.996Z,14.25
2019-04-04T13:45:53.072Z,14.00
2019-04-04T13:48:22.241Z,10.00
2019-04-04T13:50:51.365Z,14.00
2019-04-04T13:53:20.965Z,12.00
2019-04-04T13:55:50.232Z,14.00
2019-04-04T13:58:21.910Z,12.00
2019-04-04T14:00:50.174Z,13.00
2019-04-04T14:03:19.283Z,15.25
2019-04-04T14:05:48.286Z,12.50
2019-04-04T14:08:17.405Z,11.50
2019-04-04T14:10:57.651Z,13.50
2019-04-04T14:13:17.369Z,12.00
2019-04-04T14:15:46.556Z,12.00
2019-04-04T14:18:38.085Z,13.50
2019-04-04T14:21:03.560Z,12.50
2019-04-04T14:23:27.658Z,9.75
2019-04-04T14:25:59.551Z,9.75
2019-04-04T14:28:28.558Z,13.50
2019-04-04T14:31:01.294Z,11.50
2019-04-04T14:33:30.388Z,13.00
2019-04-04T14:35:59.403Z,11.00
2019-04-04T14:38:28.429Z,12.00
2019-04-04T14:41:10.192Z,12.50
2019-04-04T14:43:30.039Z,12.00
2019-04-04T14:45:59.214Z,10.75
2019-04-04T14:48:28.332Z,13.50
2019-04-04T14:50:58.478Z,14.00
2019-04-04T14:53:27.623Z,12.00
2019-04-04T14:55:56.784Z,16.00
2019-04-04T14:58:25.871Z,17.00
2019-04-04T15:00:54.982Z,16.00
2019-04-04T15:03:24.008Z,18.50
2019-04-04T15:05:53.079Z,17.00
2019-04-04T15:08:22.285Z,15.50
2019-04-04T15:10:52.491Z,17.50
2019-04-04T15:13:21.822Z,13.75
2019-04-04T15:16:12.596Z,17.50
2019-04-04T15:18:41.789Z,20.00
2019-04-04T15:21:11.089Z,19.50
2019-04-04T15:23:40.212Z,21.50
2019-04-04T15:26:09.884Z,16.75
2019-04-04T15:28:39.109Z,18.25
2019-04-04T15:31:08.241Z,16.50
2019-04-04T15:33:37.430Z,19.00
2019-04-04T15:36:07.862Z,18.00
2019-04-04T15:38:36.896Z,15.25
2019-04-04T15:41:06.168Z,17.50
2019-04-04T15:43:35.224Z,12.00
2019-04-04T15:46:04.432Z,16.25
2019-04-04T15:48:33.449Z,16.75
2019-04-04T15:51:02.605Z,12.50
2019-04-04T15:53:31.757Z,16.25
2019-04-04T15:56:03.285Z,14.75
2019-04-04T15:58:32.265Z,14.75
2019-04-04T16:01:01.414Z,13.50
2019-04-04T16:03:30.411Z,17.75
2019-04-04T16:05:59.570Z,13.75
2019-04-04T16:08:28.590Z,15.25
2019-04-04T16:10:59.734Z,14.75
2019-04-04T16:13:28.501Z,15.25
2019-04-04T16:15:57.688Z,14.25
2019-04-04T16:18:26.779Z,20.00
2019-04-04T16:20:55.818Z,15.75
2019-04-04T16:23:24.965Z,18.50
2019-04-04T16:25:58.170Z,22.50
2019-04-04T16:28:27.149Z,25.25
2019-04-04T16:30:56.246Z,26.00
2019-04-04T16:33:26.581Z,24.00
2019-04-04T16:35:55.692Z,20.00
2019-04-04T16:38:24.781Z,22.50
2019-04-04T16:40:53.966Z,23.00
2019-04-04T16:43:23.072Z,22.00
2019-04-04T16:45:52.127Z,24.00
2019-04-04T16:48:21.212Z,23.50
2019-04-04T16:50:50.318Z,23.00
2019-04-04T16:53:19.400Z,26.50
2019-04-04T16:55:48.449Z,22.00
2019-04-04T16:58:17.636Z,21.00
2019-04-04T17:00:46.774Z,20.00
2019-04-04T17:03:15.881Z,21.50
2019-04-04T17:05:45.066Z,19.50
2019-04-04T17:08:14.230Z,23.50
2019-04-04T17:10:43.284Z,21.50
2019-04-04T17:13:12.421Z,23.50
2019-04-04T17:15:41.603Z,18.75
2019-04-04T17:18:10.676Z,23.50
2019-04-04T17:20:39.720Z,19.50
2019-04-04T17:23:08.859Z,22.00
2019-04-04T17:25:37.861Z,24.50
2019-04-04T17:28:06.884Z,20.50
2019-04-04T17:30:36.073Z,23.25
2019-04-04T17:33:05.595Z,20.25
2019-04-04T17:35:34.886Z,17.75
2019-04-04T17:38:09.305Z,23.50
2019-04-04T17:40:38.597Z,23.25
2019-04-04T17:43:07.626Z,17.25
2019-04-04T17:45:36.954Z,20.75
2019-04-04T17:48:06.093Z,17.50
2019-04-04T17:50:35.678Z,17.00
2019-04-04T17:53:05.418Z,17.00
2019-04-04T17:55:34.683Z,13.00
2019-04-04T17:58:03.902Z,15.00
2019-04-04T18:00:33.002Z,17.50
2019-04-04T18:03:02.005Z,14.00
2019-04-04T18:05:31.103Z,16.00
2019-04-04T18:08:01.668Z,13.00
2019-04-04T18:10:31.079Z,13.00
2019-04-04T18:13:00.210Z,15.00
2019-04-04T18:15:29.422Z,13.00
2019-04-04T18:17:58.429Z,15.50
2019-04-04T18:20:27.706Z,13.00
2019-04-04T18:22:57.355Z,15.00
2019-04-04T18:25:26.452Z,17.50
2019-04-04T18:27:55.473Z,14.50
2019-04-04T18:30:24.610Z,14.50
2019-04-04T18:32:53.602Z,15.00
2019-04-04T18:35:23.154Z,13.50
2019-04-04T18:37:52.253Z,15.50
2019-04-04T18:40:21.549Z,16.00
2019-04-04T18:42:53.460Z,13.50
2019-04-04T18:47:49.930Z,17.50
2019-04-04T18:50:19.096Z,19.50
2019-04-04T18:52:48.119Z,17.00
2019-04-04T18:55:19.864Z,16.50
2019-04-04T18:57:48.424Z,23.00
2019-04-04T19:00:18.703Z,21.00
2019-04-04T19:02:47.923Z,19.00
2019-04-04T19:05:17.116Z,18.25
2019-04-04T19:07:46.204Z,13.50
2019-04-04T19:10:15.706Z,18.25
2019-04-04T19:12:46.048Z,13.75
2019-04-04T19:15:15.355Z,18.75
2019-04-04T19:17:44.451Z,16.75
2019-04-04T19:20:13.900Z,15.75
2019-04-04T19:22:42.969Z,17.25
2019-04-04T19:25:15.242Z,20.75
2019-04-04T19:27:44.305Z,21.25
2019-04-04T19:30:15.558Z,14.50
2019-04-04T19:32:44.610Z,24.50
2019-04-04T19:35:14.259Z,26.50
2019-04-04T19:37:43.373Z,23.50
2019-04-04T19:40:12.942Z,22.25
2019-04-04T19:42:43.067Z,22.25
2019-04-04T19:45:12.773Z,22.00
2019-04-04T19:47:41.830Z,22.50
2019-04-04T19:50:11.669Z,27.50
2019-04-04T19:52:40.766Z,22.50
2019-04-04T19:55:10.191Z,27.75
2019-04-04T19:57:39.326Z,25.00
2019-04-04T20:00:09.644Z,23.25
2019-04-04T20:02:38.731Z,25.25
2019-04-04T20:05:08.040Z,22.75
2019-04-04T20:07:38.234Z,22.25
2019-04-04T20:10:07.685Z,25.75
2019-04-04T20:12:36.731Z,25.25
2019-04-04T20:15:06.649Z,25.75
2019-04-04T20:17:35.843Z,23.25
2019-04-04T20:20:06.721Z,27.25
2019-04-04T20:22:35.864Z,26.25
2019-04-04T20:25:05.241Z,24.75
2019-04-04T20:27:34.381Z,24.75
2019-04-04T20:30:03.546Z,24.25
2019-04-04T20:32:32.552Z,25.25
2019-04-04T20:35:01.729Z,25.75
2019-04-04T20:37:30.763Z,24.25
2019-04-04T20:39:59.913Z,25.75
2019-04-04T20:45:03.661Z,22.00
2019-04-04T20:47:33.855Z,21.25
2019-04-04T20:50:03.085Z,21.75
2019-04-04T20:52:32.183Z,22.75
2019-04-04T20:55:01.152Z,22.00
2019-04-04T20:57:30.322Z,17.50
2019-04-04T20:59:59.425Z,20.00
2019-04-04T21:05:03.201Z,24.50
2019-04-04T21:07:32.246Z,19.00
2019-04-04T21:10:02.771Z,26.50
2019-04-04T21:12:31.816Z,21.00
2019-04-04T21:15:01.173Z,20.50
2019-04-04T21:17:30.149Z,19.00
2019-04-04T21:19:59.327Z,20.00
2019-04-04T21:22:28.374Z,22.50
2019-04-04T21:24:57.470Z,21.50
2019-04-04T21:27:26.483Z,22.00
2019-04-04T21:29:55.470Z,17.00
2019-04-04T21:32:24.611Z,20.00
2019-04-04T21:34:53.704Z,24.00
2019-04-04T21:37:22.846Z,22.00
2019-04-04T21:39:51.809Z,22.00
2019-04-04T21:42:20.816Z,21.50
2019-04-04T21:44:49.843Z,22.00
2019-04-04T21:47:18.831Z,20.00
2019-04-04T21:49:49.180Z,21.50
2019-04-04T21:52:18.295Z,19.50
2019-04-04T21:54:47.295Z,21.00
2019-04-04T21:57:16.390Z,23.00
2019-04-04T21:59:45.479Z,18.50
2019-04-04T22:02:14.811Z,29.50
2019-04-04T22:04:44.009Z,28.00
2019-04-04T22:07:13.151Z,21.50
2019-04-04T22:09:42.330Z,19.00
2019-04-04T22:12:11.368Z,21.00
2019-04-04T22:14:40.497Z,18.00
2019-04-04T22:17:09.619Z,22.50
2019-04-04T22:19:38.649Z,19.50
2019-04-04T22:22:07.686Z,15.50
2019-04-04T22:24:36.730Z,11.00
2019-04-04T22:27:05.933Z,15.00
2019-04-04T22:29:34.913Z,14.50
2019-04-04T22:32:03.996Z,12.00
2019-04-04T22:34:32.998Z,12.00
2019-04-04T22:37:01.975Z,12.00
2019-04-04T22:39:30.975Z,18.00
2019-04-04T22:44:35.333Z,19.50
2019-04-04T22:47:04.464Z,16.00
2019-04-04T22:49:33.500Z,16.00
2019-04-04T22:52:02.520Z,16.50
2019-04-04T22:54:31.502Z,16.50
2019-04-04T22:57:00.536Z,14.50
2019-04-04T22:59:29.551Z,16.50
2019-04-04T23:01:58.597Z,15.50
2019-04-04T23:04:27.607Z,14.50
2019-04-04T23:06:56.709Z,16.00
2019-04-04T23:09:25.845Z,14.50
2019-04-04T23:11:54.861Z,14.00
2019-04-04T23:14:23.970Z,14.00
2019-04-04T23:16:52.991Z,15.00
2019-04-04T23:19:22.155Z,15.50
2019-04-04T23:21:51.148Z,15.50
2019-04-04T23:24:20.209Z,14.50
2019-04-04T23:26:49.195Z,14.00
2019-04-04T23:29:18.197Z,16.50
2019-04-04T23:31:47.201Z,13.00
2019-04-04T23:34:16.242Z,14.00
2019-04-04T23:36:45.271Z,13.50
2019-04-04T23:39:14.325Z,14.00
2019-04-04T23:41:43.426Z,15.50
2019-04-04T23:44:12.497Z,16.00
2019-04-04T23:46:41.506Z,12.50
2019-04-04T23:49:10.673Z,13.50
2019-04-04T23:51:39.763Z,15.00
2019-04-04T23:54:08.895Z,13.50
2019-04-04T23:56:37.954Z,13.00
2019-04-04T23:59:06.965Z,15.00
